Kasson, Minnesota
Current Conditions -  °F | °C
As of 4:33 AM on Saturday 01 Nov 2014 (Local Time) from KTOB Reporting Station
Scattered Clouds Scattered Clouds  
Wind Chill: 19°   Ceiling: Unl
Heat Index: 19°   Visibility: 10mi
Dew Point: 18°   Wind: 3mph
Humidity: 93%   Direction: 190°S
Pressure: 30.44"   Gusts: NA
Location:  44.03°N, 92.75°W
Report Text: KTOB 010933Z AUTO 19003KT 10SM SCT090 M07/M08 A3044 RMK AO2
Loading
Personal Weather Stations






























Interactive Weather Map
Tropical Storm Tracking
New forecast layout! Learn more

10-Day Weather Forecast

Advertisements
Track Severe Weather on mobile